Time;durP1;ratioP1;P1;durP2;ratioP2;P2;SDS_P1;SDS_P2;PMS_P1;PMS_P2;Temp;Humidity;BMP_temperature;BMP_pressure;BME280_temperature;BME280_humidity;BME280_pressure;Samples;Min_cycle;Max_cycle;Signal;HPM_P1;HPM_P2
2023/03/26 00:01:39;;;;;;;1.30;0.70;;;;;;;8.20;100.00;92648.59;5091449;28;20492;-72
2023/03/26 00:04:07;;;;;;;1.50;0.70;;;;;;;8.28;100.00;92654.25;5091529;28;20050;-72
2023/03/26 00:06:37;;;;;;;1.88;1.02;;;;;;;8.49;100.00;92654.06;5091033;28;20062;-73
2023/03/26 00:09:06;;;;;;;1.73;0.88;;;;;;;8.38;100.00;92651.19;5091537;28;20044;-73
2023/03/26 00:11:34;;;;;;;2.85;1.13;;;;;;;8.48;100.00;92660.19;5091642;28;20079;-72
2023/03/26 00:14:02;;;;;;;2.13;1.02;;;;;;;8.64;100.00;92661.44;5090941;28;20048;-73
2023/03/26 00:16:31;;;;;;;2.55;1.30;;;;;;;8.84;100.00;92660.50;5091538;28;20056;-73
2023/03/26 00:18:58;;;;;;;15.98;7.75;;;;;;;8.94;100.00;92655.66;5091430;28;20451;-73
2023/03/26 00:21:27;;;;;;;16.92;9.63;;;;;;;8.89;100.00;92632.47;5091481;28;20055;-73
2023/03/26 00:23:55;;;;;;;6.68;3.30;;;;;;;9.01;100.00;92637.66;5091113;28;20044;-73
2023/03/26 00:26:22;;;;;;;4.22;2.08;;;;;;;9.06;100.00;92633.47;5091140;28;20500;-72
2023/03/26 00:28:51;;;;;;;2.80;1.50;;;;;;;9.05;100.00;92623.41;5091138;28;20417;-72
2023/03/26 00:31:18;;;;;;;3.38;1.38;;;;;;;9.12;100.00;92628.47;5091033;28;20051;-72
2023/03/26 00:33:46;;;;;;;2.28;1.38;;;;;;;9.17;100.00;92623.50;5090895;28;20036;-72
2023/03/26 00:36:16;;;;;;;3.05;1.40;;;;;;;9.21;100.00;92627.97;5090980;28;20044;-72
2023/03/26 00:38:45;;;;;;;2.95;1.40;;;;;;;9.19;100.00;92622.28;5090521;28;20052;-72
2023/03/26 00:41:21;;;;;;;2.58;1.33;;;;;;;9.22;100.00;92631.31;5090797;28;20051;-73
2023/03/26 00:43:48;;;;;;;;;;;;;;;9.24;100.00;92626.75;5091270;28;20135;-72
2023/03/26 00:46:17;;;;;;;3.47;1.10;;;;;;;9.20;100.00;92620.47;5090963;28;19920;-72
2023/03/26 00:48:44;;;;;;;1.77;1.00;;;;;;;9.19;100.00;92616.38;5090099;28;20048;-73
2023/03/26 00:51:14;;;;;;;3.97;1.23;;;;;;;9.19;100.00;92612.03;5090537;28;20040;-73
2023/03/26 00:53:41;;;;;;;3.83;1.42;;;;;;;9.17;100.00;92618.38;5090930;28;20378;-73
2023/03/26 00:56:09;;;;;;;2.40;1.17;;;;;;;9.07;100.00;92614.53;5090622;28;20101;-73
2023/03/26 00:58:36;;;;;;;1.73;1.02;;;;;;;9.11;100.00;92621.78;5091030;28;20055;-73
2023/03/26 01:01:05;;;;;;;2.28;1.17;;;;;;;9.06;100.00;92612.16;5090514;28;20509;-73
2023/03/26 01:03:35;;;;;;;2.55;1.27;;;;;;;9.01;100.00;92624.84;5090407;28;20551;-73
2023/03/26 01:06:06;;;;;;;2.97;1.60;;;;;;;8.92;100.00;92614.91;5090316;28;20412;-72
2023/03/26 01:08:37;;;;;;;3.95;2.85;;;;;;;8.86;100.00;92620.88;5090539;28;20147;-73
2023/03/26 01:11:12;;;;;;;3.45;1.90;;;;;;;8.77;100.00;92607.56;5090560;28;20048;-72
2023/03/26 01:13:42;;;;;;;3.03;1.90;;;;;;;8.61;100.00;92605.56;5090341;28;20044;-72
2023/03/26 01:16:20;;;;;;;2.40;1.38;;;;;;;8.59;100.00;92620.34;5090368;28;20048;-72
2023/03/26 01:18:48;;;;;;;2.47;1.70;;;;;;;8.50;100.00;92605.25;5090046;28;20056;-73
2023/03/26 01:21:21;;;;;;;2.97;1.60;;;;;;;8.48;100.00;92625.13;5090105;28;20044;-73
2023/03/26 01:23:51;;;;;;;3.20;1.60;;;;;;;8.47;100.00;92617.69;5090127;28;20054;-72
2023/03/26 01:26:33;;;;;;;7.20;3.00;;;;;;;8.28;100.00;92610.75;5089886;28;20571;-72
2023/03/26 01:29:03;;;;;;;4.68;2.65;;;;;;;8.07;100.00;92618.78;5089572;28;20462;-72
2023/03/26 01:31:37;;;;;;;4.80;2.58;;;;;;;8.00;100.00;92616.25;5089779;28;20050;-72
2023/03/26 01:34:12;;;;;;;4.60;2.33;;;;;;;8.05;100.00;92621.53;5090106;28;20044;-72
2023/03/26 01:36:45;;;;;;;4.13;2.35;;;;;;;8.05;100.00;92633.56;5089409;28;20457;-73
2023/03/26 01:39:24;;;;;;;4.47;2.60;;;;;;;8.02;100.00;92627.84;5089887;28;20074;-73
2023/03/26 01:41:57;;;;;;;7.18;2.90;;;;;;;8.09;100.00;92634.69;5089575;28;20075;-73
2023/03/26 01:44:30;;;;;;;5.80;2.85;;;;;;;7.88;100.00;92603.38;5089939;28;20465;-72
2023/03/26 01:47:00;;;;;;;6.43;3.30;;;;;;;8.11;100.00;92627.63;5089412;28;20380;-73
2023/03/26 01:49:28;;;;;;;5.88;3.65;;;;;;;8.14;100.00;92639.97;5089871;28;20105;-72
2023/03/26 01:51:56;;;;;;;6.07;3.67;;;;;;;8.14;100.00;92639.97;5089547;28;20089;-73
2023/03/26 01:54:26;;;;;;;9.30;4.63;;;;;;;8.11;100.00;92643.72;5089442;28;20389;-72
2023/03/26 01:57:04;;;;;;;7.82;4.30;;;;;;;8.01;100.00;92628.09;5089778;28;20058;-73
2023/03/26 01:59:52;;;;;;;6.53;4.18;;;;;;;8.10;100.00;92638.84;5088826;28;20520;-73
2023/03/26 02:02:26;;;;;;;5.88;3.42;;;;;;;7.95;100.00;92634.00;5089657;28;20331;-72
2023/03/26 02:04:57;;;;;;;5.20;2.47;;;;;;;7.71;100.00;92639.69;5089584;28;20466;-72
2023/03/26 02:07:36;;;;;;;4.50;2.70;;;;;;;7.68;100.00;92640.06;5089512;28;20040;-72
2023/03/26 02:10:10;;;;;;;4.70;2.78;;;;;;;7.70;100.00;92637.31;5089617;28;20404;-73
2023/03/26 02:12:38;;;;;;;6.60;3.72;;;;;;;7.52;100.00;92604.78;5089164;28;20044;-72
2023/03/26 02:15:07;;;;;;;5.65;2.60;;;;;;;7.77;100.00;92632.19;5089161;28;20500;-72
2023/03/26 02:17:33;;;;;;;3.70;2.47;;;;;;;7.78;100.00;92629.38;5089177;28;20447;-72
2023/03/26 02:20:05;;;;;;;2.92;2.10;;;;;;;7.68;100.00;92627.28;5089177;28;20445;-73
2023/03/26 02:22:32;;;;;;;3.17;1.85;;;;;;;7.69;100.00;92636.53;5089245;28;20063;-73
2023/03/26 02:24:58;;;;;;;3.30;2.13;;;;;;;7.45;100.00;92635.50;5088787;28;20044;-72
2023/03/26 02:27:25;;;;;;;3.83;2.50;;;;;;;7.41;100.00;92637.66;5088741;28;20105;-72
2023/03/26 02:29:54;;;;;;;3.22;1.95;;;;;;;7.32;100.00;92641.44;5089215;28;20381;-72
2023/03/26 02:32:21;;;;;;;4.43;2.10;;;;;;;7.33;100.00;92646.34;5088661;28;20492;-72
2023/03/26 02:34:50;;;;;;;2.95;1.80;;;;;;;7.24;100.00;92634.00;5089384;28;20040;-72
2023/03/26 02:37:17;;;;;;;3.70;2.05;;;;;;;6.93;100.00;92649.03;5075473;28;20093;-72
2023/03/26 02:39:44;;;;;;;2.60;1.80;;;;;;;6.96;100.00;92658.84;5088990;28;20557;-72
2023/03/26 02:42:11;;;;;;;2.70;1.60;;;;;;;6.98;100.00;92661.22;5075776;28;20117;-72
2023/03/26 02:44:39;;;;;;;3.42;1.90;;;;;;;6.89;100.00;92663.97;5088793;28;20056;-72
2023/03/26 02:47:07;;;;;;;2.90;2.10;;;;;;;6.88;100.00;92669.28;5088584;28;20131;-72
2023/03/26 02:49:34;;;;;;;2.30;2.10;;;;;;;6.70;100.00;92673.25;5088493;28;20048;-73
2023/03/26 02:52:05;;;;;;;2.83;2.05;;;;;;;6.68;100.00;92675.22;5088581;28;20044;-72
2023/03/26 02:54:32;;;;;;;2.95;2.40;;;;;;;6.70;100.00;92675.78;5088356;28;20048;-72
2023/03/26 02:56:59;;;;;;;2.67;1.98;;;;;;;6.64;100.00;92681.69;5088902;28;20097;-72
2023/03/26 02:59:26;;;;;;;3.65;2.40;;;;;;;6.62;100.00;92683.66;5090117;28;20051;-72
2023/03/26 03:01:53;;;;;;;2.50;1.92;;;;;;;6.68;100.00;92690.53;5100950;28;20044;-72
2023/03/26 03:04:21;;;;;;;3.25;2.35;;;;;;;6.78;100.00;92685.00;5088473;28;20467;-72
2023/03/26 03:06:51;;;;;;;3.42;2.47;;;;;;;6.81;100.00;92690.50;5088738;28;20101;-72
2023/03/26 03:09:18;;;;;;;3.03;2.33;;;;;;;6.90;100.00;92687.75;5088483;28;20056;-72
2023/03/26 03:11:45;;;;;;;2.97;2.05;;;;;;;6.91;100.00;92689.31;5090470;28;20044;-72
2023/03/26 03:14:12;;;;;;;3.10;2.20;;;;;;;6.86;100.00;92697.56;5092212;28;20512;-72
2023/03/26 03:16:39;;;;;;;3.08;1.80;;;;;;;6.63;100.00;92698.75;5092716;28;20097;-72
2023/03/26 03:19:06;;;;;;;2.25;1.60;;;;;;;6.62;100.00;92702.28;5092514;28;20113;-72
2023/03/26 03:21:34;;;;;;;2.70;1.90;;;;;;;6.41;100.00;92695.63;5092509;28;20495;-72
2023/03/26 03:24:01;;;;;;;3.03;2.30;;;;;;;6.48;100.00;92710.97;5092466;28;20404;-73
2023/03/26 03:26:28;;;;;;;3.47;2.42;;;;;;;6.44;100.00;92713.13;5092310;28;20044;-73
2023/03/26 03:28:56;;;;;;;3.20;2.17;;;;;;;6.54;100.00;92710.16;5092400;28;20109;-72
2023/03/26 03:31:24;;;;;;;3.97;2.42;;;;;;;6.55;100.00;92702.31;5092334;28;20131;-72
2023/03/26 03:33:52;;;;;;;3.53;2.60;;;;;;;6.57;100.00;92694.44;5092197;28;20089;-72
2023/03/26 03:36:21;;;;;;;3.83;2.70;;;;;;;6.55;100.00;92687.00;5092293;28;20048;-72
2023/03/26 03:38:50;;;;;;;3.75;2.70;;;;;;;6.49;100.00;92697.22;5091750;28;20424;-73
2023/03/26 03:41:17;;;;;;;3.03;2.28;;;;;;;6.45;100.00;92688.38;5091879;28;20054;-72
2023/03/26 03:43:44;;;;;;;3.92;2.30;;;;;;;6.48;100.00;92693.88;5092144;28;20044;-72
2023/03/26 03:46:11;;;;;;;4.35;3.20;;;;;;;6.49;100.00;92700.53;5092091;28;20067;-72
2023/03/26 03:48:38;;;;;;;2.85;2.28;;;;;;;6.47;100.00;92702.50;5091853;28;20048;-72
2023/03/26 03:51:05;;;;;;;3.78;2.80;;;;;;;6.40;100.00;92682.09;5091760;28;20442;-72
2023/03/26 03:53:35;;;;;;;3.28;2.38;;;;;;;6.55;100.00;92706.63;5091725;28;20500;-72
2023/03/26 03:56:08;;;;;;;3.53;2.70;;;;;;;6.53;100.00;92695.84;5077486;28;20447;-72
2023/03/26 03:58:35;;;;;;;4.47;2.72;;;;;;;6.73;100.00;92708.59;5091647;28;20076;-72
2023/03/26 04:01:03;;;;;;;4.40;2.60;;;;;;;6.69;100.00;92702.31;5083803;28;20534;-72
2023/03/26 04:03:30;;;;;;;3.42;2.50;;;;;;;6.63;100.00;92687.78;5086396;28;20099;-72
2023/03/26 04:05:57;;;;;;;4.28;3.00;;;;;;;6.48;100.00;92642.84;5091552;28;20518;-72
2023/03/26 04:08:24;;;;;;;3.72;2.88;;;;;;;6.70;100.00;92675.03;5078019;28;20094;-72
2023/03/26 04:10:51;;;;;;;4.85;3.33;;;;;;;6.93;100.00;92723.06;5085323;28;20044;-72
2023/03/26 04:13:20;;;;;;;3.80;2.92;;;;;;;6.75;100.00;92718.59;5083884;28;20089;-73
2023/03/26 04:15:47;;;;;;;4.03;3.00;;;;;;;6.72;100.00;92731.75;5091580;28;20048;-73
2023/03/26 04:18:13;;;;;;;4.65;3.55;;;;;;;6.78;100.00;92733.50;5091493;28;20052;-72
2023/03/26 04:20:45;;;;;;;4.13;3.17;;;;;;;6.86;100.00;92735.88;5090843;28;20488;-72
2023/03/26 04:23:13;;;;;;;4.35;3.53;;;;;;;6.91;100.00;92741.16;5083999;28;20505;-72
2023/03/26 04:25:40;;;;;;;5.38;3.65;;;;;;;6.85;100.00;92749.59;5081105;28;20569;-72
2023/03/26 04:28:10;;;;;;;3.75;3.30;;;;;;;6.78;100.00;92759.03;5090133;28;20473;-72
2023/03/26 04:30:41;;;;;;;3.30;2.80;;;;;;;6.65;100.00;92749.59;5091032;28;20048;-72
2023/03/26 04:33:14;;;;;;;4.25;3.22;;;;;;;6.68;100.00;92770.41;5091335;28;20058;-72
2023/03/26 04:35:43;;;;;;;4.22;3.60;;;;;;;6.71;100.00;92771.78;5090869;28;20489;-72
2023/03/26 04:38:11;;;;;;;4.07;3.42;;;;;;;6.67;100.00;92778.28;5090499;28;21328;-72
2023/03/26 04:40:38;;;;;;;5.57;4.57;;;;;;;6.46;100.00;92762.19;5090639;28;20117;-72
2023/03/26 04:43:05;;;;;;;5.88;5.22;;;;;;;6.53;100.00;92782.59;5090711;28;20051;-72
2023/03/26 04:45:32;;;;;;;6.40;4.90;;;;;;;6.44;100.00;92787.09;5091010;28;20063;-72
2023/03/26 04:48:01;;;;;;;6.38;4.70;;;;;;;6.43;100.00;92775.31;5090766;28;20466;-72
2023/03/26 04:50:28;;;;;;;5.88;4.63;;;;;;;6.40;100.00;92789.22;5090897;28;20093;-72
2023/03/26 04:52:57;;;;;;;7.43;4.60;;;;;;;6.38;100.00;92785.31;5090795;28;20091;-72
2023/03/26 04:55:29;;;;;;;6.15;4.72;;;;;;;6.38;100.00;92781.00;5091018;28;20048;-71
2023/03/26 04:57:58;;;;;;;6.28;5.22;;;;;;;6.32;100.00;92775.88;5090415;28;20488;-72
2023/03/26 05:00:26;;;;;;;7.70;4.72;;;;;;;6.07;100.00;92745.84;5090296;28;20449;-72
2023/03/26 05:02:56;;;;;;;6.85;5.40;;;;;;;6.30;100.00;92796.50;5089851;28;20518;-72
2023/03/26 05:05:25;;;;;;;6.05;4.82;;;;;;;6.27;100.00;92794.31;5090873;28;20056;-72
2023/03/26 05:07:52;;;;;;;7.07;5.50;;;;;;;6.28;100.00;92796.69;5090081;28;20052;-72
2023/03/26 05:10:20;;;;;;;8.13;6.05;;;;;;;6.31;100.00;92792.16;5090188;28;20082;-72
2023/03/26 05:12:47;;;;;;;7.50;6.03;;;;;;;6.30;100.00;92799.06;5089957;28;20481;-72
2023/03/26 05:15:17;;;;;;;7.78;6.13;;;;;;;6.23;100.00;92790.59;5090218;28;20093;-72
2023/03/26 05:17:47;;;;;;;7.53;6.18;;;;;;;6.38;100.00;92806.50;5077249;28;20036;-72
2023/03/26 05:20:20;;;;;;;8.93;6.45;;;;;;;6.48;100.00;92807.91;5070495;28;20049;-71
2023/03/26 05:22:49;;;;;;;10.98;8.05;;;;;;;6.55;100.00;92808.69;5071182;28;20380;-72
2023/03/26 05:25:17;;;;;;;13.20;8.35;;;;;;;6.58;100.00;92813.44;5081624;28;20079;-71
2023/03/26 05:27:44;;;;;;;9.52;7.50;;;;;;;6.67;100.00;92822.44;5089063;28;20093;-71
2023/03/26 05:30:14;;;;;;;8.38;7.10;;;;;;;6.65;100.00;92795.56;5089793;28;20089;-72
2023/03/26 05:32:40;;;;;;;10.73;8.02;;;;;;;6.79;100.00;92817.56;5076070;28;20040;-72
2023/03/26 05:35:08;;;;;;;8.32;7.28;;;;;;;6.91;100.00;92816.97;5089143;28;20040;-72
2023/03/26 05:37:36;;;;;;;11.60;9.38;;;;;;;7.02;100.00;92820.69;5089299;28;20048;-71
2023/03/26 05:40:10;;;;;;;10.45;8.85;;;;;;;7.10;100.00;92817.94;5089748;28;20078;-72
2023/03/26 05:42:37;;;;;;;12.77;10.15;;;;;;;7.21;100.00;92819.09;5089583;28;20083;-72
2023/03/26 05:45:04;;;;;;;7.95;6.68;;;;;;;7.39;100.00;92826.16;5089437;28;20117;-71
2023/03/26 05:47:31;;;;;;;9.35;7.53;;;;;;;7.56;100.00;92830.84;5072536;28;20055;-72
2023/03/26 05:49:58;;;;;;;14.32;9.85;;;;;;;7.67;100.00;92832.78;5079299;28;20050;-72
2023/03/26 05:52:24;;;;;;;8.65;6.68;;;;;;;7.67;100.00;92829.44;5089534;28;20055;-71
2023/03/26 05:54:51;;;;;;;8.18;6.65;;;;;;;7.76;100.00;92825.69;5089450;28;20044;-72
2023/03/26 05:57:21;;;;;;;9.48;6.82;;;;;;;7.89;100.00;92819.75;5089218;28;20545;-72
2023/03/26 05:59:48;;;;;;;8.52;6.60;;;;;;;8.17;100.00;92818.66;5089511;28;20055;-72
2023/03/26 06:02:14;;;;;;;8.75;7.18;;;;;;;8.36;100.00;92811.88;5075712;28;20090;-72
2023/03/26 06:04:41;;;;;;;7.93;6.22;;;;;;;8.17;100.00;92816.09;5068988;28;20049;-72
2023/03/26 06:07:08;;;;;;;8.70;6.68;;;;;;;8.28;100.00;92820.56;5081859;28;20453;-72
2023/03/26 06:09:37;;;;;;;8.88;7.30;;;;;;;8.22;100.00;92823.16;5088996;28;20412;-72
2023/03/26 06:12:04;;;;;;;7.45;6.60;;;;;;;8.35;100.00;92822.31;5089301;28;20127;-72
2023/03/26 06:14:41;;;;;;;8.25;6.60;;;;;;;8.44;100.00;92821.06;5069713;28;20431;-73
2023/03/26 06:17:08;;;;;;;8.13;6.65;;;;;;;8.55;100.00;92812.78;5070299;28;20052;-73
2023/03/26 06:19:35;;;;;;;7.53;6.10;;;;;;;8.88;100.00;92823.00;5089472;28;20043;-72
2023/03/26 06:22:02;;;;;;;9.50;6.68;;;;;;;9.05;100.00;92816.38;5088789;28;20048;-73
2023/03/26 06:24:29;;;;;;;8.52;6.50;;;;;;;9.42;100.00;92823.34;5088787;28;20048;-73
2023/03/26 06:26:56;;;;;;;6.80;5.95;;;;;;;9.33;100.00;92817.69;5088463;28;20044;-73
2023/03/26 06:29:30;;;;;;;7.03;5.60;;;;;;;9.47;98.06;92825.25;5080527;28;20109;-74
2023/03/26 06:31:58;;;;;;;9.30;6.43;;;;;;;9.53;100.00;92826.19;5072294;28;20040;-74
2023/03/26 06:34:24;;;;;;;6.45;5.28;;;;;;;9.55;99.89;92825.00;5068723;28;20094;-73
2023/03/26 06:36:57;;;;;;;6.43;5.07;;;;;;;9.30;96.52;92825.81;5068934;28;20098;-73
2023/03/26 06:39:27;;;;;;;8.50;6.65;;;;;;;9.81;97.77;92824.94;5068769;28;20389;-73
2023/03/26 06:41:53;;;;;;;8.10;6.43;;;;;;;10.37;99.42;92822.31;5068830;28;20044;-73
2023/03/26 06:44:20;;;;;;;7.00;5.38;;;;;;;10.21;95.01;92819.34;5078457;28;20051;-73
2023/03/26 06:46:47;;;;;;;8.45;6.28;;;;;;;10.37;94.12;92828.19;5090592;28;20043;-73
2023/03/26 06:49:20;;;;;;;10.77;5.70;;;;;;;10.61;87.81;92823.19;5084317;28;20052;-74
2023/03/26 06:51:47;;;;;;;10.20;5.85;;;;;;;10.56;90.20;92828.22;5079579;28;20082;-73
2023/03/26 06:54:16;;;;;;;9.30;5.43;;;;;;;10.41;84.18;92825.97;5072784;28;20488;-74
2023/03/26 06:56:43;;;;;;;14.13;5.78;;;;;;;10.38;87.26;92840.03;5083502;28;20040;-73
2023/03/26 06:59:16;;;;;;;12.35;5.95;;;;;;;10.42;84.38;92843.75;5077485;28;20101;-74
2023/03/26 07:01:45;;;;;;;7.57;4.38;;;;;;;9.91;85.84;92845.75;5074545;28;20041;-73
2023/03/26 07:04:12;;;;;;;10.75;5.47;;;;;;;9.75;90.39;92824.78;5073849;28;20114;-74
2023/03/26 07:06:40;;;;;;;8.38;4.10;;;;;;;9.98;89.31;92843.09;5084820;28;20712;-73
2023/03/26 07:09:07;;;;;;;10.13;4.90;;;;;;;10.25;84.88;92842.78;5092543;28;20466;-73
2023/03/26 07:11:34;;;;;;;9.73;6.40;;;;;;;10.02;88.75;92831.41;5092174;28;20097;-74
2023/03/26 07:14:01;;;;;;;9.25;5.25;;;;;;;10.20;90.09;92842.66;5092009;28;20537;-74
2023/03/26 07:16:28;;;;;;;15.80;6.50;;;;;;;10.58;89.13;92844.16;5078814;28;20093;-73
2023/03/26 07:18:55;;;;;;;7.85;4.50;;;;;;;10.21;84.56;92850.13;5092662;28;20056;-73
2023/03/26 07:21:22;;;;;;;6.22;3.92;;;;;;;10.14;84.67;92844.31;5091637;28;20041;-73
2023/03/26 07:23:51;;;;;;;7.63;4.82;;;;;;;10.50;87.59;92840.13;5092462;28;20117;-74
2023/03/26 07:26:26;;;;;;;5.20;3.88;;;;;;;11.05;85.34;92846.06;5092257;28;20114;-74
2023/03/26 07:29:00;;;;;;;8.87;4.13;;;;;;;10.89;81.15;92849.28;5091447;28;20403;-74
2023/03/26 07:31:35;;;;;;;5.68;4.10;;;;;;;11.36;82.80;92841.63;5091735;28;20040;-73
2023/03/26 07:34:11;;;;;;;7.85;3.90;;;;;;;12.13;79.55;92849.41;5092127;28;20044;-73
2023/03/26 07:36:47;;;;;;;6.50;3.50;;;;;;;12.67;75.67;92834.66;5091177;28;20044;-73
2023/03/26 07:39:36;;;;;;;7.32;3.90;;;;;;;13.16;74.60;92839.34;5091702;28;20060;-74
2023/03/26 07:42:10;;;;;;;5.20;3.78;;;;;;;12.99;66.43;92841.91;5090660;28;20132;-73
2023/03/26 07:44:47;;;;;;;6.50;3.63;;;;;;;12.66;69.72;92827.94;5090993;28;20102;-74
2023/03/26 07:47:24;;;;;;;9.25;3.58;;;;;;;12.69;66.89;92799.16;5090736;28;20044;-73
2023/03/26 07:49:54;;;;;;;9.85;3.78;;;;;;;13.03;69.66;92824.94;5090434;28;20492;-73
2023/03/26 07:52:21;;;;;;;9.13;3.50;;;;;;;13.14;67.69;92831.03;5091014;28;20071;-73
2023/03/26 07:54:50;;;;;;;7.85;3.92;;;;;;;13.49;70.68;92832.63;5090548;28;20052;-73
2023/03/26 07:57:31;;;;;;;14.80;4.40;;;;;;;13.88;70.19;92826.66;5090449;28;20044;-73
2023/03/26 08:00:01;;;;;;;8.60;4.00;;;;;;;14.21;67.72;92828.59;5090720;28;20040;-74
2023/03/26 08:02:47;;;;;;;5.40;3.40;;;;;;;14.25;61.43;92840.00;5090553;28;20118;-73
2023/03/26 08:05:24;;;;;;;5.88;3.17;;;;;;;13.26;61.30;92836.13;5090093;28;20497;-73
2023/03/26 08:08:07;;;;;;;4.35;3.10;;;;;;;11.96;65.97;92825.34;5077041;28;20398;-73
2023/03/26 08:10:47;;;;;;;6.90;3.10;;;;;;;12.70;68.53;92824.66;5090289;28;20424;-73
2023/03/26 08:13:23;;;;;;;6.72;3.42;;;;;;;12.75;69.87;92820.63;5090349;28;20052;-73
2023/03/26 08:15:59;;;;;;;9.75;3.70;;;;;;;13.35;70.71;92819.25;5089822;28;20040;-74
2023/03/26 08:18:40;;;;;;;8.02;3.45;;;;;;;13.52;61.92;92802.19;5088602;28;20085;-74
2023/03/26 08:21:12;;;;;;;8.23;3.42;;;;;;;12.88;65.85;92811.81;5078261;28;20055;-73
2023/03/26 08:23:48;;;;;;;9.00;3.78;;;;;;;13.39;68.87;92811.81;5087410;28;20126;-73
2023/03/26 08:26:23;;;;;;;8.98;3.92;;;;;;;13.44;65.57;92813.66;5089769;28;20141;-74
2023/03/26 08:29:01;;;;;;;8.32;3.30;;;;;;;13.54;64.39;92823.38;5089341;28;20098;-74
2023/03/26 08:31:32;;;;;;;6.18;3.35;;;;;;;13.79;66.04;92820.34;5090000;28;20094;-73
2023/03/26 08:33:59;;;;;;;7.32;3.00;;;;;;;14.11;67.52;92814.53;5089567;28;20044;-73
2023/03/26 08:36:26;;;;;;;4.80;2.40;;;;;;;13.41;61.18;92824.44;5089805;28;20048;-73
2023/03/26 08:38:53;;;;;;;4.10;2.80;;;;;;;13.41;64.87;92819.28;5045178;28;1263229;-73
2023/03/26 08:42:04;;;;;;;5.43;2.88;;;;;;;13.54;63.32;92826.75;5090777;28;20101;-73
2023/03/26 08:44:58;;;;;;;3.50;2.60;;;;;;;13.36;63.63;92831.13;5090952;28;20057;-73
2023/03/26 08:48:02;;;;;;;3.50;2.67;;;;;;;13.39;58.49;92829.88;5071604;28;20044;-74
2023/03/26 08:51:11;;;;;;;4.90;2.65;;;;;;;12.76;63.33;92828.13;5082455;28;20083;-73
2023/03/26 08:54:05;;;;;;;8.07;2.83;;;;;;;13.10;64.01;92833.31;5090861;28;20138;-73
2023/03/26 08:56:43;;;;;;;9.45;3.20;;;;;;;13.74;65.27;92826.22;5071009;28;20087;-74
2023/03/26 08:59:52;;;;;;;9.90;2.90;;;;;;;14.34;59.05;92830.81;5090108;28;20043;-73
2023/03/26 09:02:51;;;;;;;4.47;2.28;;;;;;;14.13;57.96;92824.63;5056037;28;20146;-73
2023/03/26 09:05:45;;;;;;;6.60;2.22;;;;;;;13.61;58.97;92822.19;5049091;28;20496;-73
2023/03/26 09:08:50;;;;;;;3.33;1.80;;;;;;;13.26;61.83;92812.13;5090203;28;20044;-73
2023/03/26 09:11:49;;;;;;;3.08;1.85;;;;;;;12.98;56.67;92811.19;5090059;28;20056;-73
2023/03/26 09:14:48;;;;;;;3.53;1.40;;;;;;;12.61;55.18;92814.97;5077208;28;20048;-73
2023/03/26 09:17:47;;;;;;;4.05;1.92;;;;;;;12.26;55.30;92821.81;5090453;28;20044;-73
2023/03/26 09:20:47;;;;;;;3.00;1.17;;;;;;;12.56;53.85;92811.28;5064265;28;20052;-73
2023/03/26 09:24:01;;;;;;;4.72;1.58;;;;;;;12.85;58.32;92802.75;5076228;28;20716;-73
2023/03/26 09:26:39;;;;;;;2.03;1.17;;;;;;;12.64;52.80;92797.25;5069854;28;20052;-74
2023/03/26 09:29:49;;;;;;;4.03;1.75;;;;;;;12.74;56.17;92803.59;5081778;28;20041;-71
2023/03/26 09:32:46;;;;;;;2.47;1.20;;;;;;;12.54;57.11;92800.44;5087474;28;20044;-71
2023/03/26 09:35:22;;;;;;;9.27;4.88;;;;;;;12.37;52.50;92797.06;5083367;28;20117;-71
2023/03/26 09:37:57;;;;;;;4.43;1.55;;;;;;;12.35;51.93;92793.94;5090174;28;20044;-71
2023/03/26 09:40:35;;;;;;;2.47;0.65;;;;;;;12.49;52.34;92781.56;5089281;28;20664;-71
2023/03/26 09:43:21;;;;;;;6.40;2.85;;;;;;;12.71;48.41;92799.69;5089759;28;20048;-71
2023/03/26 09:46:01;;;;;;;8.10;4.22;;;;;;;12.43;50.86;92785.81;5090028;28;20052;-71
2023/03/26 09:49:03;;;;;;;4.32;2.00;;;;;;;12.26;46.64;92793.50;5089901;28;20044;-71
2023/03/26 09:51:40;;;;;;;2.95;1.40;;;;;;;12.85;56.25;92783.91;5089803;28;20114;-71
2023/03/26 09:54:43;;;;;;;1.92;1.08;;;;;;;12.95;50.51;92796.97;5089782;28;20486;-72
2023/03/26 09:57:21;;;;;;;2.38;1.10;;;;;;;12.46;49.79;92787.94;5089808;28;20040;-71
2023/03/26 10:00:03;;;;;;;3.25;0.73;;;;;;;12.29;45.70;92788.69;5089448;28;20040;-71
2023/03/26 10:02:50;;;;;;;2.30;0.98;;;;;;;12.23;46.82;92783.69;5089858;28;20195;-72
2023/03/26 10:05:45;;;;;;;2.42;1.10;;;;;;;12.42;50.74;92777.31;5078181;28;20046;-71
2023/03/26 10:08:26;;;;;;;2.28;1.23;;;;;;;12.74;51.97;92776.03;5089117;28;20051;-71
2023/03/26 10:10:57;;;;;;;2.05;1.23;;;;;;;12.76;51.62;92768.84;5089168;28;20046;-71
2023/03/26 10:13:31;;;;;;;2.40;1.10;;;;;;;12.54;51.22;92755.84;5089356;28;20044;-71
2023/03/26 10:16:21;;;;;;;1.70;1.02;;;;;;;12.79;51.66;92718.63;5089476;28;20044;-71
2023/03/26 10:19:02;;;;;;;2.90;1.38;;;;;;;13.15;53.30;92739.75;5089407;28;20044;-71
2023/03/26 10:21:41;;;;;;;2.03;1.10;;;;;;;13.13;51.40;92748.75;5089240;28;20138;-71
2023/03/26 10:24:19;;;;;;;2.25;0.80;;;;;;;13.36;47.71;92732.31;5089447;28;20435;-71
2023/03/26 10:27:02;;;;;;;2.08;0.90;;;;;;;13.22;47.99;92724.91;5089213;28;20159;-71
2023/03/26 10:30:03;;;;;;;3.20;1.40;;;;;;;13.61;47.56;92729.28;5078232;28;20465;-71
2023/03/26 10:32:42;;;;;;;2.75;1.40;;;;;;;13.80;49.65;92721.22;5071209;28;20123;-71
2023/03/26 10:35:25;;;;;;;1.80;0.80;;;;;;;13.94;45.68;92711.34;5088685;28;20048;-71
2023/03/26 10:38:08;;;;;;;1.58;0.80;;;;;;;14.61;47.18;92710.34;5088988;28;20492;-74
2023/03/26 10:40:43;;;;;;;1.83;0.88;;;;;;;14.88;45.81;92712.13;5088536;28;20109;-74
2023/03/26 10:43:51;;;;;;;6.45;1.92;;;;;;;14.78;45.26;92687.78;5088975;28;20447;-74
2023/03/26 10:46:38;;;;;;;3.45;1.27;;;;;;;14.64;46.70;92702.13;5088788;28;20545;-74
2023/03/26 10:49:48;;;;;;;2.05;1.00;;;;;;;14.45;46.10;92699.13;5071933;28;20052;-74
2023/03/26 10:52:21;;;;;;;3.58;1.10;;;;;;;14.05;49.21;92693.34;5088815;28;20117;-74
2023/03/26 10:54:55;;;;;;;5.95;2.05;;;;;;;14.61;46.85;92677.53;5089079;28;20044;-74
2023/03/26 10:57:38;;;;;;;2.45;1.30;;;;;;;14.61;47.66;92671.59;5089018;28;20184;-73
2023/03/26 11:00:15;;;;;;;4.35;1.80;;;;;;;14.68;49.55;92688.44;5088813;28;20036;-73
2023/03/26 11:02:50;;;;;;;3.30;1.33;;;;;;;14.59;46.32;92692.53;5088733;28;20516;-73
2023/03/26 11:05:35;;;;;;;1.92;1.10;;;;;;;14.10;47.03;92662.41;5089739;28;20048;-73
2023/03/26 11:08:09;;;;;;;2.10;1.10;;;;;;;14.52;47.60;92658.34;5088666;28;20559;-74
2023/03/26 11:10:47;;;;;;;3.67;1.10;;;;;;;14.62;46.78;92673.94;5088892;28;20048;-74
2023/03/26 11:13:23;;;;;;;2.70;1.23;;;;;;;14.72;45.33;92677.63;5088982;28;20044;-74
2023/03/26 11:15:56;;;;;;;2.53;1.40;;;;;;;15.00;48.97;92679.09;5088736;28;20556;-74
2023/03/26 11:18:32;;;;;;;2.78;1.30;;;;;;;15.08;43.97;92689.00;5088596;28;20040;-74
2023/03/26 11:21:08;;;;;;;2.10;1.10;;;;;;;14.71;43.90;92684.59;5088393;28;20098;-74
2023/03/26 11:23:40;;;;;;;1.60;1.00;;;;;;;14.30;46.53;92646.28;5088416;28;20439;-73
2023/03/26 11:26:12;;;;;;;2.40;1.50;;;;;;;14.52;46.73;92666.88;5088626;28;20048;-74
2023/03/26 11:29:01;;;;;;;1.98;1.10;;;;;;;14.48;47.08;92662.47;5083782;28;20083;-74
2023/03/26 11:31:38;;;;;;;2.80;1.70;;;;;;;14.64;48.28;92660.75;5088804;28;20098;-74
2023/03/26 11:34:12;;;;;;;3.20;1.38;;;;;;;14.03;46.51;92626.47;5079180;28;20089;-74
2023/03/26 11:36:43;;;;;;;1.85;1.08;;;;;;;14.25;47.34;92662.53;5092131;28;20052;-74
2023/03/26 11:39:15;;;;;;;2.30;1.10;;;;;;;14.30;46.95;92654.84;5092457;28;20048;-73
2023/03/26 11:41:43;;;;;;;1.60;0.90;;;;;;;14.55;46.65;92652.69;5091811;28;20093;-73
2023/03/26 11:44:19;;;;;;;1.75;1.00;;;;;;;14.40;44.04;92650.78;5092116;28;20101;-74
2023/03/26 11:46:46;;;;;;;;;;;;;;;14.73;42.15;92640.41;5092411;28;20125;-74
2023/03/26 11:49:17;;;;;;;3.10;1.00;;;;;;;15.30;43.17;92617.44;5092327;28;19923;-74
2023/03/26 11:51:47;;;;;;;2.70;1.02;;;;;;;15.48;42.82;92616.19;5091843;28;20040;-74
2023/03/26 11:54:16;;;;;;;1.77;0.88;;;;;;;15.81;43.43;92618.59;5091733;28;20083;-74
2023/03/26 11:56:48;;;;;;;1.67;0.80;;;;;;;15.71;40.93;92622.75;5078536;28;20047;-74
2023/03/26 11:59:17;;;;;;;2.35;0.82;;;;;;;15.36;39.91;92606.84;5092016;28;20056;-74
2023/03/26 12:01:51;;;;;;;3.65;0.80;;;;;;;15.48;40.44;92611.81;5097507;28;20078;-74
2023/03/26 12:04:25;;;;;;;2.47;1.15;;;;;;;15.03;40.84;92606.19;5095503;28;20831;-74